Detall de PIREP

Printer-friendly versionPDF version

[2011/01/08 15:23:00]
Flight IATA:CT1004
Pilot Number:042
Company ICAO:CAT
Aircraft Type:B744/E
PAX:290
Departing Airport: LEBL
Destination Airport: GVAC
Alternate Airport:GOOY
Online: VATSIM
Route:LOTOS UM985 PIMOS UN869 ADM UR975 YF UR976 UGAMA
Flight Level:FL360
No Slew and time accel
No pause
Crash detect
Detect pilot in Cockpit between each 30 and 45 minutes
15:23 Zero fuel Weight: 466688 Lbs, Fuel Weight: 255302 Lbs
15:23 VATSIM:LEBL 081500Z 22011KT CAVOK 15/09 Q1016 NOSIG
15:23 VATSIM:GVAC 081500Z 05018KT 9999 FEW015 27/17 Q1015 NOSIG
15:23 VOICE CATALONIAN/X-MAS CHARTER
15:24 Parking Brakes off
15:34 Take-off
15:34 Take off Weight: 826675 Lbs
15:34 Wind: 222 @ 011 Knots Heading: 244
15:34 POS N41 17 05 E002 04 53
15:34 Gear Up: 202 Knots
15:34 Flaps:2 at 202 Knots
15:35 Flaps:1 at 216 Knots
15:35 Flaps:0 at 250 Knots
15:35 Flaps:1 at 250 Knots
15:36 Flaps:0 at 253 Knots
15:49 Wind:240@043 Knots Heading: 228 Ground Speed: 430 Knots Altitude 26213 ft
16:02 TOC
16:02 Fuel Weight: 229397 Lb
16:04 Wind:230@055 Knots Heading: 232 Ground Speed: 459 Knots Altitude 36115 ft
16:19 Wind:230@058 Knots Heading: 226 Ground Speed: 458 Knots Altitude 36122 ft
16:34 Wind:230@055 Knots Heading: 214 Ground Speed: 461 Knots Altitude 36141 ft
16:49 Wind:240@052 Knots Heading: 216 Ground Speed: 467 Knots Altitude 36158 ft
17:04 Wind:252@052 Knots Heading: 216 Ground Speed: 475 Knots Altitude 36184 ft
17:19 Wind:245@055 Knots Heading: 215 Ground Speed: 473 Knots Altitude 36230 ft
17:34 Wind:246@047 Knots Heading: 204 Ground Speed: 485 Knots Altitude 36171 ft
17:49 Wind:250@047 Knots Heading: 204 Ground Speed: 490 Knots Altitude 36204 ft
18:04 Wind:244@061 Knots Heading: 205 Ground Speed: 474 Knots Altitude 36210 ft
18:19 Wind:247@059 Knots Heading: 203 Ground Speed: 476 Knots Altitude 36197 ft
18:34 Wind:242@060 Knots Heading: 198 Ground Speed: 471 Knots Altitude 36135 ft
18:49 Wind:235@064 Knots Heading: 203 Ground Speed: 473 Knots Altitude 36010 ft
19:04 Wind:240@051 Knots Heading: 218 Ground Speed: 484 Knots Altitude 35902 ft
19:19 Wind:240@048 Knots Heading: 248 Ground Speed: 483 Knots Altitude 35902 ft
19:34 Wind:233@052 Knots Heading: 246 Ground Speed: 473 Knots Altitude 35895 ft
19:49 Wind:241@047 Knots Heading: 247 Ground Speed: 477 Knots Altitude 35918 ft
19:54 TOD
19:54 Fuel Weight: 126136 Lb
20:04 Wind:260@019 Knots Heading: 289 Ground Speed: 353 Knots Altitude 23005 ft
20:09 Flaps:1 at 225 Knots
20:10 Flaps:2 at 220 Knots
20:19 Wind:130@017 Knots Heading: 280 Ground Speed: 221 Knots Altitude 3871 ft
20:26 Gear Down: 188 Knots
20:26Flaps:3 at 188 Knots
20:26 Flaps:4 at 186 Knots
20:27 Flaps:5 at 180 Knots
20:27 Flaps:6 at 173 Knots
20:30 TouchDown:Rate -212 ft/min Speed: 139 Knots
20:30 VATSIM:GVAC 082000Z 05012KT 9999 FEW015 24/17 Q1015 NOSIG
20:30 Land
20:30 Wind:063@012 Knots
20:30 Heading: 359
20:30 Flight Duration: 04:56
20:30 Landing Weight: 688885 Lbs
20:30 POS N16 44 12 W022 56 56
20:33 Parking brakes on
20:33 Block to Block Duration: 05:09
20:33 Final Fuel: 113994 Lbls
20:33 Spent Fuel: 141307 Lbls
20:33 Flight Length: 2081 NM
20:33 TOD Land Length: 174 NM

Exportar CSV

Powered by Drupal - Modified by Danger4k